Airfield :
LOGIN :

Register | Disclaimer

   EN    FR    IT 

 










Legend :    VFR   Marginal VFR   IFR   Intensive IFR   Very Intensive IFR
Visi :
Ceiling :
>= 8 km
>= 3000ft
5 to 8 km
1000 to 3000 ft
1500m to 5 km
500 to 1000 ft
800 to 1500m
200 to 500 ft
< 800m
< 200 ft
Symbols :   Thunderstorms  Fog  Heavy snow  Heavy precipitations  Wind > 20 kt
SIGMETs :     Misc.  Thunderstorms  Icing  Turbulence  Mountain Waves  Volcanic Ashes







- Airport Elevation : 14 ft
- IATA code : BRE


EDDW - Bremen Neuenland

CURRENT METAR :
  • 250020Z 19009KT 9999 -RA BKN028 12/09 Q1006

EXPIRED METARs :
  • 242350Z 18009KT 9999 BKN034 11/09 Q1007
  • 242320Z 17007KT 9999 SCT036 BKN050 11/10 Q1007
  • 242250Z 18005KT 8000 SCT036 BKN066 11/10 Q1008
  • 242220Z 17003KT 130V190 8000 -RA BKN034 10/10 Q1009
  • 242150Z 07003KT 9999 -RA FEW041 BKN068 10/09 Q1010

TAF TAF EDDW
Valid from the 25 at 00:00 until the 26 at 00:00 UTC


242300Z 2500/2524 19008KT 9999 BKN025
PROB30
TEMPO 2501/2507 4500 RA BKN012
BECMG 2502/2504 25015G25KT
TEMPO 2507/2510 28020G35KT
PROB30
TEMPO 2507/2509 BKN014
BECMG 2511/2513 28010KT
PROB30
TEMPO 2514/2518 SHRA
BECMG 2515/2517 24005KT
No reported NOTAMs for that airfield.



MET'MAP, your aeronautical weather chart ! - Copyright ORBIFLY December 2007 - Disclaimer

ORBIFLY MET'MAP TEAM :

Programming & Development : Alexandra Zaïnal
Concept & Development : Baudouin d'Aumeries
Co-Development & Prog : Marc-Olivier Méhu
Technical & hardware support : Manuel Goepfert

Contact : metmap@orbifly.com




SOURCES & CREDITS :

   NOAA